Logo AVAMET
Benvolgut visitant, si us plau, ingressa Recuperar contrasenya
AVAMET paisatges

Inforatge Castelló de la Plana Centre Urban

Dades diàries. Acumulats / Últims 30 dies disponibles

Data Temperatura (°C) Humitat rel. (%) Pressió rel. (hPa) Vent (km/h) Precipitació
Mínima Mitjana Màxima Amplitud
tèrmica
Mínima Mitjana Màxima Mínima Mitjana Màxima Predom. Mitjana Ràfega
màxima
Total
(mm)
Índex-n
Mínima Mitjana Màxima Mínima Mitjana Màxima n
0 a 1
P0 max
mm 5'
Dades mensuals acumulades fins l'últim dia disponible
06/2020 17,2 17,2 17,2 21,5 24,9 24,9 24,9 7,7 58 74 83 1.015 1.017 1.019   4,3 29,0 0,0
Dades anuals acumulades fins l'últim dia disponible
2020 1,5 10,3 19,9 14,8 10,3 19,5 31,8 30,3 25 75 97 997 1.021 1.036   4,7 72,4 370,6
Últims 30 dies disponibles
01-06-2020 17,2     21,5     24,9 7,7 58 74 83 1.015 1.017 1.019 SSE 4,3 29,0 0,0
31-05-2020 15,4     20,7     25,1 9,7 46 74 86 1.014 1.016 1.018 SSE 5,0 25,7 0,0
30-05-2020 16,2     21,1     24,6 8,4 54 72 86 1.016 1.017 1.019 SE 5,0 25,7 0,0
29-05-2020 13,9     21,0     26,4 12,5 43 66 86 1.016 1.019 1.023 SE 6,0 27,4 0,0
28-05-2020 15,0     20,7     24,8 9,8 56 73 87 1.023 1.026 1.029 SE 4,5 24,1 0,0
27-05-2020 15,6     21,3     26,8 11,2 43 70 83 1.026 1.027 1.029 ENE 8,2 38,6 0,0
26-05-2020 15,9     21,0     25,3 9,4 56 74 91 1.026 1.027 1.028 ENE 3,2 24,1 0,0
25-05-2020 16,4     19,6     25,1 8,7 54 76 86 1.026 1.028 1.029 WNW 2,1 17,7 2,4 0,07 0,40
24-05-2020 19,1     21,3     23,1 4,0 69 76 83 1.028 1.029 1.030 NE 6,1 25,7 0,0
23-05-2020 16,7     22,6     27,5 10,8 48 71 82 1.026 1.026 1.029 W 3,9 19,3 0,0
22-05-2020 17,6     22,8     27,1 9,5 59 73 86 1.022 1.024 1.027 ENE 4,0 20,9 0,0
21-05-2020 16,6     22,9     28,2 11,6 45 68 88 1.019 1.021 1.023 SE 3,9 20,9 0,0
20-05-2020 17,1     22,3     27,1 10,0 45 66 79 1.016 1.017 1.019 W 4,7 27,4 0,0
19-05-2020 15,9     21,3     25,8 9,9 50 67 84 1.017 1.019 1.022 W 5,5 19,3 0,0
18-05-2020 13,9     19,4     24,0 10,1 51 71 88 1.021 1.022 1.023 W 5,8 22,5 0,0
17-05-2020 13,6     18,9     22,8 9,2 55 69 86 1.020 1.022 1.023 SE 4,7 22,5 0,0
16-05-2020 15,6     18,2     21,1 5,5 63 75 90 1.016 1.018 1.021 SE 3,4 22,5 0,8
15-05-2020 12,3     17,2     21,5 9,2 58 74 86 1.011 1.014 1.017 W 4,0 27,4 0,2
14-05-2020 13,9     16,0     18,4 4,5 75 82 91 1.005 1.006 1.011 W 1,8 17,7 18,4 0,59 3,00
13-05-2020 12,6     19,0     25,4 12,8 45 70 90 1.004 1.006 1.008 WNW 7,2 37,0 0,0
12-05-2020 16,1     18,7     21,7 5,6 54 72 90 1.008 1.010 1.012 ENE 6,9 41,8 2,6 0,26 0,60
11-05-2020 13,2     21,5     28,3 15,1 32 53 88 1.006 1.007 1.011 W 9,5 40,2 0,0
10-05-2020 15,4     19,0     23,7 8,3 52 78 92 1.004 1.006 1.011 ENE 4,7 33,8 1,8 0,42 0,80
09-05-2020 17,3     19,6     22,8 5,5 68 79 88 1.011 1.014 1.017 ENE 3,2 20,9 0,0
08-05-2020 16,5     19,7     22,3 5,8 65 77 86 1.015 1.018 1.021 ENE 6,1 41,8 0,0
07-05-2020 15,9     20,7     24,9 9,0 51 71 84 1.019 1.020 1.022 ENE 5,3 30,6 0,0
06-05-2020 15,0     20,9     25,1 10,1 50 75 91 1.016 1.018 1.021 ENE 3,9 30,6 0,0
05-05-2020 15,7     20,5     24,6 8,9 63 77 90 1.014 1.016 1.017 ENE 3,2 19,3 0,0
04-05-2020 14,9     20,2     23,7 8,8 70 79 89 1.016 1.018 1.019 ENE 3,4 19,3 0,0
03-05-2020 16,8     22,1     25,9 9,1 49 65 79 1.018 1.019 1.021 ENE 4,8 20,9 0,0
Últims 13 mesos disponibles
04/2020 6,8 11,8 16,5 15,5 15,6 19,6 27,8 21,0 53 78 90 1.006 1.017 1.028 ENE 4,2 37,0 154,0
03/2020 4,6 9,5 15,2 13,6 12,3 17,8 24,9 20,3 46 71 91 1.006 1.018 1.028 ENE 6,1 72,4 116,8
02/2020 4,4 8,4 12,2 13,5 14,5 19,2 26,1 21,7 51 74 86 1.013 1.026 1.034 W 3,6 41,8 0,2
01/2020 1,5 6,0 11,8 10,4 10,3 15,7 22,0 20,5 66 78 90 1.019 1.026 1.033 W 4,4 69,2 73,4
12/2019 3,4 8,9 16,4 13,2 12,7 17,7 25,8 22,4 48 74 87 1.002 1.020 1.034 W 4,7 61,2 128,4
11/2019 4,6 10,5 17,9 15,0 15,3 20,1 28,2 23,6 43 58 80 998 1.011 1.019 W 5,8 57,9 5,0
10/2019 9,7 15,0 19,6 19,4 17,1 24,0 28,4 18,7 50 73 87 1.008 1.018 1.023 W 4,3 49,9 20,2
09/2019 15,0 19,4 22,2 23,3 21,6 27,2 31,3 16,3 52 73 84 1.011 1.019 1.027 S 5,5 55,6 62,8
08/2019 17,7 21,4 25,0 25,8 25,9 29,8 32,9 15,2 55 73 81 1.012 1.018 1.022 SSE 5,1 44,4 38,0
07/2019 19,6 21,4 24,1 26,3 27,5 30,2 34,5 14,9 50 67 78 1.007 1.016 1.023 SSE 5,4 35,4 11,4
06/2019 10,7 17,0 20,6 22,1 21,0 26,4 36,9 26,2 42 65 80 1.009 1.017 1.024 SE 5,8 55,6 0,0
05/2019 8,3 13,2 16,6 17,8 17,9 22,2 28,2 19,9 52 69 82 1.006 1.017 1.026 SSO 5,8 48,3 15,8
04/2019 6,6 10,7 13,8 15,1 15,7 19,6 26,8 20,2 46 65 88 1.000 1.014 1.027 SSO 7,5 64,8 55,2
Tots els anys disponibles
2019 0,7 13,0 25,0 17,8 12,6 22,5 36,9 36,2 29 67 88 994 1.018 1.035 SSO 5,5 79,6 349,8
Temperatura (°C)
Humitat relativa (%)
Velocitat del vent i ràfega màxima (km/h)
Direcció del vent (°)
Pressió (hPa)
Precipitació (mm)
Nota sobre les dades: s'avisa a l'usuari de la provisionalitat i no oficialitat d'aquestes dades
Logo AVAMET blanc
Web allotjada a Sollutia
Llicència de Creative CommonsLa web d'AVAMET i els seus continguts estan subjectes a una llicència de
Reconeixement - No Comercial - Compartir igual
Últimes estacions: Xodos - la Vega (Soci), la Vall d'Alba - Centre (Ajuntament soci), Chera (Ajuntament soci) - - -